Observation data for Anton on 05/24/2019      Previous  Date  Next       Current Mesonet Observations  Soil Data  Daily Summary Page  Observations in Plain Language
KAOS 240500Z 24019G25KT 14/13 A30 RMK A01 T01440129  RH  094%=      5-min Rain = 0.09
KAOS 240505Z 27013G21KT 14/13 A2999 RMK A01 T01430128  RH  095%=      5-min Rain = 0.19
KAOS 240510Z 25004KT 14/13 A2998 RMK A01 T01410128  RH  095%=      5-min Rain = 0.06
KAOS 240515Z 12005KT 14/13 A2998 RMK A01 T01420129  RH  096%=      5-min Rain = 0.01
KAOS 240520Z 08001KT 14/13 A2999 RMK A01 T01430130  RH  096%=      5-min Rain = 0.08
KAOS 240525Z 21003KT 14/13 A2999 RMK A01 T01440131  RH  096%=      5-min Rain = 0.07
KAOS 240530Z 15001KT 14/13 A2998 RMK A01 T01430131  RH  096%=      5-min Rain = 0.08
KAOS 240535Z 08003KT 14/13 A2997 RMK A01 T01440132  RH  096%=      5-min Rain = 0.08
KAOS 240540Z 09009G14KT 14/13 A2996 RMK A01 T01440133  RH  097%=      5-min Rain = 0.12
KAOS 240545Z 09011KT 15/13 A2995 RMK A01 T01450134  RH  097%=      5-min Rain = 0.03
KAOS 240550Z 04007KT 15/13 A2995 RMK A01 T01450134  RH  097%=      5-min Rain = 0
KAOS 240555Z 17006G11KT 15/14 A2997 RMK A01 T01460136  RH  097%=      5-min Rain = 0.01
KAOS 240600Z 18006KT 15/14 A2999 RMK A01 T01470136  RH  097%=      5-min Rain = 0
KAOS 240605Z 11004KT 15/14 A2997 RMK A01 T01470136  RH  097%=      5-min Rain = 0.05
KAOS 240610Z 04003KT 15/14 A2997 RMK A01 T01480136  RH  097%=      5-min Rain = 0.01
KAOS 240615Z 35003KT 15/14 A2996 RMK A01 T01480137  RH  097%=      5-min Rain = 0.05
KAOS 240620Z 19003KT 15/14 A2997 RMK A01 T01480137  RH  097%=      5-min Rain = 0.04
KAOS 240625Z 16004KT 15/14 A2997 RMK A01 T01470136  RH  097%=      5-min Rain = 0.07
KAOS 240630Z 19006KT 15/13 A2996 RMK A01 T01460133  RH  096%=      5-min Rain = 0.08
KAOS 240635Z 14010KT 15/13 A2996 RMK A01 T01470130  RH  094%=      5-min Rain = 0.02
KAOS 240640Z 13011KT 15/13 A2995 RMK A01 T01460131  RH  094%=      5-min Rain = 0.01
KAOS 240645Z 15008KT 15/13 A2994 RMK A01 T01460128  RH  092%=      5-min Rain = 0
KAOS 240650Z 15007KT 15/13 A2993 RMK A01 T01450128  RH  093%=      5-min Rain = 0
KAOS 240655Z 15011KT 15/13 A2994 RMK A01 T01460129  RH  093%=      5-min Rain = 0
KAOS 240700Z 12012KT 15/13 A2995 RMK A01 T01460129  RH  093%=      5-min Rain = 0
KAOS 240705Z 12013KT 15/13 A2995 RMK A01 T01470129  RH  093%=      5-min Rain = 0.01
KAOS 240710Z 12011KT 15/13 A2995 RMK A01 T01480128  RH  091%=      5-min Rain = 0
KAOS 240715Z 13009KT 15/13 A2995 RMK A01 T01480127  RH  091%=      5-min Rain = 0.01
KAOS 240720Z 11006KT 15/13 A2993 RMK A01 T01470128  RH  092%=      5-min Rain = 0.01
KAOS 240725Z 13006KT 15/13 A2994 RMK A01 T01480129  RH  092%=      5-min Rain = 0
KAOS 240730Z 09005KT 15/13 A2993 RMK A01 T01480130  RH  093%=      5-min Rain = 0
KAOS 240735Z 09008KT 15/13 A2993 RMK A01 T01500131  RH  092%=      5-min Rain = 0
KAOS 240740Z 10006KT 15/13 A2993 RMK A01 T01510131  RH  091%=      5-min Rain = 0
KAOS 240745Z 11004KT 15/13 A2995 RMK A01 T01500132  RH  092%=      5-min Rain = 0
KAOS 240750Z 06001KT 15/13 A2997 RMK A01 T01500133  RH  093%=      5-min Rain = 0
KAOS 240755Z 28006G11KT 15/13 A2998 RMK A01 T01510134  RH  093%=      5-min Rain = 0.02
KAOS 240800Z 30005G10KT 15/13 A2997 RMK A01 T01500133  RH  094%=      5-min Rain = 0.03
KAOS 240805Z 34003KT 15/13 A2997 RMK A01 T01490134  RH  094%=      5-min Rain = 0
KAOS 240810Z 01004KT 15/13 A2996 RMK A01 T01500134  RH  094%=      5-min Rain = 0
KAOS 240815Z 07006KT 15/13 A2995 RMK A01 T01510134  RH  094%=      5-min Rain = 0.01
KAOS 240820Z 07006KT 15/13 A2994 RMK A01 T01510134  RH  093%=      5-min Rain = 0
KAOS 240825Z 06006KT 15/14 A2994 RMK A01 T01520135  RH  094%=      5-min Rain = 0
KAOS 240830Z 11006KT 15/14 A2995 RMK A01 T01520135  RH  093%=      5-min Rain = 0
KAOS 240835Z 21010G16KT 15/14 A2998 RMK A01 T01510136  RH  094%=      5-min Rain = 0.09
KAOS 240840Z 28012G19KT 15/12 A2996 RMK A01 T01460122  RH  089%=      5-min Rain = 0.08
KAOS 240845Z 30007KT 14/12 A2995 RMK A01 T01440122  RH  090%=      5-min Rain = 0.02
KAOS 240850Z 30007KT 14/12 A2995 RMK A01 T01440119  RH  089%=      5-min Rain = 0.02
KAOS 240855Z 24003KT 14/12 A2995 RMK A01 T01410120  RH  090%=      5-min Rain = 0.02
KAOS 240900Z 14005KT 14/12 A2995 RMK A01 T01430120  RH  090%=      5-min Rain = 0
KAOS 240905Z 12006KT 15/13 A2995 RMK A01 T01460125  RH  090%=      5-min Rain = 0
KAOS 240910Z 10006KT 15/13 A2993 RMK A01 T01480126  RH  091%=      5-min Rain = 0
KAOS 240915Z 12007KT 15/13 A2994 RMK A01 T01470128  RH  092%=      5-min Rain = 0
KAOS 240920Z 13009KT 15/13 A2994 RMK A01 T01480130  RH  093%=      5-min Rain = 0
KAOS 240925Z 13007KT 15/13 A2996 RMK A01 T01490131  RH  093%=      5-min Rain = 0
KAOS 240930Z 15006KT 15/13 A2997 RMK A01 T01500131  RH  092%=      5-min Rain = 0.03
KAOS 240935Z 19002KT 15/13 A2996 RMK A01 T01500131  RH  092%=      5-min Rain = 0.03
KAOS 240940Z 17005KT 15/13 A2996 RMK A01 T01480131  RH  093%=      5-min Rain = 0
KAOS 240945Z 14008KT 15/13 A2996 RMK A01 T01490133  RH  094%=      5-min Rain = 0.02
KAOS 240950Z 16006KT 15/13 A2996 RMK A01 T01480134  RH  095%=      5-min Rain = 0.01
KAOS 240955Z 14006KT 15/13 A2995 RMK A01 T01470134  RH  096%=      5-min Rain = 0
KAOS 241000Z 13009KT 15/14 A2995 RMK A01 T01480135  RH  096%=      5-min Rain = 0
KAOS 241005Z 13008KT 15/14 A2995 RMK A01 T01470135  RH  096%=      5-min Rain = 0
KAOS 241010Z 13009KT 15/14 A2995 RMK A01 T01480135  RH  096%=      5-min Rain = 0
KAOS 241015Z 13008KT 15/14 A2995 RMK A01 T01480135  RH  096%=      5-min Rain = 0
KAOS 241020Z 11006KT 15/13 A2995 RMK A01 T01480134  RH  095%=      5-min Rain = 0
KAOS 241025Z 13006KT 15/13 A2996 RMK A01 T01480133  RH  095%=      5-min Rain = 0
KAOS 241030Z 12008KT 15/13 A2995 RMK A01 T01480133  RH  094%=      5-min Rain = 0
KAOS 241035Z 12007KT 15/13 A2995 RMK A01 T01500133  RH  093%=      5-min Rain = 0
KAOS 241040Z 11007KT 15/13 A2995 RMK A01 T01500132  RH  093%=      5-min Rain = 0
KAOS 241045Z 11008KT 15/13 A2995 RMK A01 T01510133  RH  092%=      5-min Rain = 0
KAOS 241050Z 12009KT 15/13 A2996 RMK A01 T01530132  RH  091%=      5-min Rain = 0
KAOS 241055Z 12009KT 16/13 A2996 RMK A01 T01560131  RH  089%=      5-min Rain = 0
KAOS 241100Z 11006KT 16/13 A2996 RMK A01 T01570133  RH  089%=      5-min Rain = 0
KAOS 241105Z 10002KT 16/13 A2996 RMK A01 T01560134  RH  090%=      5-min Rain = 0
KAOS 241110Z 06000KT 16/14 A2996 RMK A01 T01560135  RH  091%=      5-min Rain = 0
KAOS 241115Z 34002KT 16/14 A2997 RMK A01 T01560136  RH  092%=      5-min Rain = 0
KAOS 241120Z 01002KT 16/14 A2997 RMK A01 T01570137  RH  092%=      5-min Rain = 0
KAOS 241125Z 07004KT 16/14 A2996 RMK A01 T01580138  RH  091%=      5-min Rain = 0
KAOS 241130Z 08004KT 16/14 A2996 RMK A01 T01600140  RH  092%=      5-min Rain = 0
KAOS 241135Z 07004KT 16/14 A2997 RMK A01 T01590141  RH  093%=      5-min Rain = 0
KAOS 241140Z 06003KT 16/14 A2997 RMK A01 T01590142  RH  093%=      5-min Rain = 0
KAOS 241145Z 08003KT 16/14 A2997 RMK A01 T01590142  RH  094%=      5-min Rain = 0
KAOS 241150Z 10005KT 16/14 A2997 RMK A01 T01600143  RH  094%=      5-min Rain = 0
KAOS 241155Z 09005KT 16/15 A2997 RMK A01 T01600145  RH  094%=      5-min Rain = 0
KAOS 241200Z 10005KT 16/15 A2997 RMK A01 T01610146  RH  095%=      5-min Rain = 0
KAOS 241205Z 11004KT 16/15 A2998 RMK A01 T01620147  RH  095%=      5-min Rain = 0
KAOS 241210Z 11004KT 16/15 A2998 RMK A01 T01620147  RH  095%=      5-min Rain = 0
KAOS 241215Z 09004KT 16/15 A2998 RMK A01 T01630148  RH  095%=      5-min Rain = 0
KAOS 241220Z 09003KT 16/15 A2998 RMK A01 T01630149  RH  095%=      5-min Rain = 0.02
KAOS 241225Z 12003KT 16/15 A2998 RMK A01 T01640149  RH  095%=      5-min Rain = 0.05
KAOS 241230Z 10004KT 16/15 A2998 RMK A01 T01640150  RH  096%=      5-min Rain = 0.01
KAOS 241235Z 12003KT 16/15 A2998 RMK A01 T01640150  RH  096%=      5-min Rain = 0
KAOS 241240Z 12002KT 16/15 A2998 RMK A01 T01640150  RH  096%=      5-min Rain = 0
KAOS 241245Z 09003KT 16/15 A2998 RMK A01 T01640151  RH  096%=      5-min Rain = 0.02
KAOS 241250Z 05002KT 17/15 A2999 RMK A01 T01650151  RH  096%=      5-min Rain = 0
KAOS 241255Z 04003KT 16/15 A2999 RMK A01 T01640150  RH  095%=      5-min Rain = 0.04
KAOS 241300Z 36004KT 17/15 A2998 RMK A01 T01650149  RH  094%=      5-min Rain = 0.01
KAOS 241305Z 35003KT 17/15 A2999 RMK A01 T01650149  RH  094%=      5-min Rain = 0
KAOS 241310Z 34005KT 17/15 A2999 RMK A01 T01660148  RH  093%=      5-min Rain = 0
KAOS 241315Z 34005KT 17/15 A2999 RMK A01 T01680148  RH  092%=      5-min Rain = 0
KAOS 241320Z 02003KT 17/15 A2999 RMK A01 T01650146  RH  093%=      5-min Rain = 0
KAOS 241325Z 06005KT 17/15 A2999 RMK A01 T01700148  RH  091%=      5-min Rain = 0
KAOS 241330Z 34004KT 17/15 A2999 RMK A01 T01710149  RH  091%=      5-min Rain = 0
KAOS 241335Z 33005KT 17/15 A2999 RMK A01 T01660147  RH  093%=      5-min Rain = 0
KAOS 241340Z 02005KT 17/15 A2999 RMK A01 T01690147  RH  091%=      5-min Rain = 0
KAOS 241345Z 02005KT 17/15 A2999 RMK A01 T01710147  RH  090%=      5-min Rain = 0
KAOS 241350Z 33006KT 17/15 A30 RMK A01 T01690147  RH  091%=      5-min Rain = 0
KAOS 241355Z 32006KT 17/15 A30 RMK A01 T01660147  RH  093%=      5-min Rain = 0
KAOS 241400Z 35004KT 17/15 A30 RMK A01 T01680147  RH  092%=      5-min Rain = 0
KAOS 241405Z 35005KT 17/15 A2999 RMK A01 T01690148  RH  091%=      5-min Rain = 0
KAOS 241410Z 34004KT 17/15 A2999 RMK A01 T01700149  RH  092%=      5-min Rain = 0
KAOS 241415Z 01003KT 17/15 A2999 RMK A01 T01700150  RH  092%=      5-min Rain = 0
KAOS 241420Z 02005KT 18/15 A2999 RMK A01 T01750152  RH  091%=      5-min Rain = 0
KAOS 241425Z 01004KT 18/15 A30 RMK A01 T01790153  RH  089%=      5-min Rain = 0
KAOS 241430Z 00004KT 18/15 A2999 RMK A01 T01800153  RH  088%=      5-min Rain = 0
KAOS 241435Z 36004KT 18/16 A2999 RMK A01 T01800155  RH  090%=      5-min Rain = 0
KAOS 241440Z 35005KT 18/16 A2999 RMK A01 T01770156  RH  092%=      5-min Rain = 0
KAOS 241445Z 00004KT 18/16 A2999 RMK A01 T01770157  RH  093%=      5-min Rain = 0
KAOS 241450Z 01004KT 18/16 A2999 RMK A01 T01770157  RH  092%=      5-min Rain = 0
KAOS 241455Z 01004KT 18/16 A30 RMK A01 T01800157  RH  091%=      5-min Rain = 0
KAOS 241500Z 01003KT 18/16 A30 RMK A01 T01820158  RH  090%=      5-min Rain = 0
KAOS 241505Z 02003KT 18/16 A30 RMK A01 T01830157  RH  089%=      5-min Rain = 0
KAOS 241510Z 02003KT 18/15 A30 RMK A01 T01840154  RH  087%=      5-min Rain = 0
KAOS 241515Z 02004KT 19/15 A30 RMK A01 T01850154  RH  086%=      5-min Rain = 0
KAOS 241520Z 03004KT 19/16 A30 RMK A01 T01850156  RH  087%=      5-min Rain = 0
KAOS 241525Z 04004KT 19/16 A30 RMK A01 T01860157  RH  087%=      5-min Rain = 0
KAOS 241530Z 05004KT 19/16 A30 RMK A01 T01860157  RH  088%=      5-min Rain = 0
KAOS 241535Z 06004KT 19/16 A30 RMK A01 T01870157  RH  087%=      5-min Rain = 0
KAOS 241540Z 06003KT 19/16 A30 RMK A01 T01860157  RH  087%=      5-min Rain = 0
KAOS 241545Z 04003KT 19/16 A30 RMK A01 T01870158  RH  088%=      5-min Rain = 0
KAOS 241550Z 05004KT 19/16 A30 RMK A01 T01890160  RH  088%=      5-min Rain = 0
KAOS 241555Z 07002KT 19/16 A30 RMK A01 T01890158  RH  086%=      5-min Rain = 0
KAOS 241600Z 09002KT 19/16 A30 RMK A01 T01910161  RH  087%=      5-min Rain = 0
KAOS 241605Z 09002KT 19/16 A30 RMK A01 T01930163  RH  087%=      5-min Rain = 0
KAOS 241610Z 11002KT 20/17 A30 RMK A01 T01970165  RH  086%=      5-min Rain = 0
KAOS 241615Z 11003KT 20/17 A30 RMK A01 T01970166  RH  086%=      5-min Rain = 0
KAOS 241620Z 13005KT 20/17 A30 RMK A01 T02000170  RH  087%=      5-min Rain = 0
KAOS 241625Z 14005KT 21/18 A30 RMK A01 T02050176  RH  088%=      5-min Rain = 0
KAOS 241630Z 14004KT 21/18 A30 RMK A01 T02070177  RH  087%=      5-min Rain = 0
KAOS 241635Z 13004KT 21/18 A30 RMK A01 T02070176  RH  086%=      5-min Rain = 0
KAOS 241640Z 16005KT 21/18 A30 RMK A01 T02090179  RH  087%=      5-min Rain = 0
KAOS 241645Z 16006KT 21/18 A30 RMK A01 T02140183  RH  087%=      5-min Rain = 0
KAOS 241650Z 17006KT 22/19 A30 RMK A01 T02150185  RH  087%=      5-min Rain = 0
KAOS 241655Z 18005KT 22/18 A30 RMK A01 T02150182  RH  086%=      5-min Rain = 0
KAOS 241700Z 17004KT 22/18 A30 RMK A01 T02170184  RH  086%=      5-min Rain = 0
KAOS 241705Z 18005KT 22/19 A30 RMK A01 T02230191  RH  086%=      5-min Rain = 0
KAOS 241710Z 22006KT 23/19 A2999 RMK A01 T02250188  RH  084%=      5-min Rain = 0
KAOS 241715Z 22007KT 23/19 A2999 RMK A01 T02280191  RH  084%=      5-min Rain = 0
KAOS 241720Z 22007G12KT 23/19 A2999 RMK A01 T02290190  RH  083%=      5-min Rain = 0
KAOS 241725Z 23007KT 23/19 A2998 RMK A01 T02300191  RH  083%=      5-min Rain = 0
KAOS 241730Z 21007KT 23/19 A2998 RMK A01 T02320192  RH  083%=      5-min Rain = 0
KAOS 241735Z 22007KT 24/19 A2998 RMK A01 T02360194  RH  082%=      5-min Rain = 0
KAOS 241740Z 23007KT 24/19 A2998 RMK A01 T02370193  RH  081%=      5-min Rain = 0
KAOS 241745Z 23007KT 24/19 A2998 RMK A01 T02370191  RH  080%=      5-min Rain = 0
KAOS 241750Z 23006KT 24/19 A2997 RMK A01 T02390193  RH  079%=      5-min Rain = 0
KAOS 241755Z 25007KT 24/19 A2997 RMK A01 T02420192  RH  078%=      5-min Rain = 0
KAOS 241800Z 24006KT 24/19 A2997 RMK A01 T02430194  RH  078%=      5-min Rain = 0
KAOS 241805Z 25006KT 24/19 A2997 RMK A01 T02440192  RH  077%=      5-min Rain = 0
KAOS 241810Z 26006KT 25/19 A2996 RMK A01 T02450191  RH  076%=      5-min Rain = 0
KAOS 241815Z 25007KT 25/19 A2996 RMK A01 T02460192  RH  076%=      5-min Rain = 0
KAOS 241820Z 26004KT 24/19 A2996 RMK A01 T02440185  RH  073%=      5-min Rain = 0
KAOS 241825Z 28005KT 25/19 A2996 RMK A01 T02450188  RH  074%=      5-min Rain = 0
KAOS 241830Z 26005KT 25/19 A2996 RMK A01 T02470192  RH  076%=      5-min Rain = 0
KAOS 241835Z 25005KT 25/19 A2995 RMK A01 T02460190  RH  075%=      5-min Rain = 0
KAOS 241840Z 28004KT 24/19 A2995 RMK A01 T02440187  RH  075%=      5-min Rain = 0
KAOS 241845Z 29005KT 24/19 A2995 RMK A01 T02430186  RH  075%=      5-min Rain = 0
KAOS 241850Z 27006KT 24/19 A2995 RMK A01 T02420187  RH  075%=      5-min Rain = 0
KAOS 241855Z 26005KT 24/19 A2995 RMK A01 T02400187  RH  076%=      5-min Rain = 0
KAOS 241900Z 27006KT 24/19 A2994 RMK A01 T02400186  RH  076%=      5-min Rain = 0
KAOS 241905Z 29008KT 24/19 A2993 RMK A01 T02390186  RH  076%=      5-min Rain = 0
KAOS 241910Z 28006KT 24/19 A2994 RMK A01 T02390187  RH  077%=      5-min Rain = 0
KAOS 241915Z 26002KT 24/18 A2997 RMK A01 T02390184  RH  075%=      5-min Rain = 0
KAOS 241920Z 29002KT 24/18 A2996 RMK A01 T02400181  RH  073%=      5-min Rain = 0
KAOS 241925Z 29004KT 24/18 A2995 RMK A01 T02440184  RH  073%=      5-min Rain = 0
KAOS 241930Z 27004KT 24/18 A2994 RMK A01 T02420181  RH  073%=      5-min Rain = 0
KAOS 241935Z 28003KT 25/19 A2994 RMK A01 T02480185  RH  072%=      5-min Rain = 0
KAOS 241940Z 27001KT 26/18 A2994 RMK A01 T02550181  RH  067%=      5-min Rain = 0
KAOS 241945Z 09006G18KT 26/18 A2994 RMK A01 T02550182  RH  068%=      5-min Rain = 0
KAOS 241950Z 10016G22KT 21/16 A2994 RMK A01 T02140162  RH  076%=      5-min Rain = 0
KAOS 241955Z 10015KT 21/16 A2993 RMK A01 T02090160  RH  077%=      5-min Rain = 0
KAOS 242000Z 10012KT 21/17 A2993 RMK A01 T02140165  RH  077%=      5-min Rain = 0
KAOS 242005Z 09008KT 21/17 A2993 RMK A01 T02140166  RH  078%=      5-min Rain = 0
KAOS 242010Z 10006KT 22/16 A2992 RMK A01 T02180164  RH  075%=      5-min Rain = 0
KAOS 242015Z 07004KT 22/17 A2992 RMK A01 T02240166  RH  073%=      5-min Rain = 0
KAOS 242020Z 03003KT 23/17 A2992 RMK A01 T02300168  RH  071%=      5-min Rain = 0
KAOS 242025Z 03003KT 23/17 A2992 RMK A01 T02340172  RH  072%=      5-min Rain = 0
KAOS 242030Z 02005KT 24/18 A2992 RMK A01 T02390181  RH  074%=      5-min Rain = 0
KAOS 242035Z 01006KT 24/18 A2991 RMK A01 T02420184  RH  074%=      5-min Rain = 0
KAOS 242040Z 02005KT 24/18 A2991 RMK A01 T02430184  RH  073%=      5-min Rain = 0
KAOS 242045Z 03006KT 25/19 A2991 RMK A01 T02460187  RH  074%=      5-min Rain = 0
KAOS 242050Z 05008KT 25/19 A299 RMK A01 T02470189  RH  074%=      5-min Rain = 0.01
KAOS 242055Z 06007KT 24/19 A299 RMK A01 T02440187  RH  074%=      5-min Rain = 0
KAOS 242100Z 06006KT 24/19 A299 RMK A01 T02440186  RH  074%=      5-min Rain = 0
KAOS 242105Z 05007KT 25/19 A299 RMK A01 T02460189  RH  075%=      5-min Rain = 0
KAOS 242110Z 05006KT 25/19 A299 RMK A01 T02460187  RH  073%=      5-min Rain = 0
KAOS 242115Z 04006KT 25/19 A299 RMK A01 T02490190  RH  074%=      5-min Rain = 0
KAOS 242120Z 05005KT 25/19 A299 RMK A01 T02510189  RH  073%=      5-min Rain = 0
KAOS 242125Z 06007KT 25/19 A299 RMK A01 T02540191  RH  072%=      5-min Rain = 0
KAOS 242130Z 08007KT 25/19 A299 RMK A01 T02540189  RH  071%=      5-min Rain = 0
KAOS 242135Z 06007KT 26/19 A2989 RMK A01 T02560188  RH  070%=      5-min Rain = 0
KAOS 242140Z 05007KT 26/18 A2988 RMK A01 T02550183  RH  068%=      5-min Rain = 0
KAOS 242145Z 06010KT 25/19 A2987 RMK A01 T02520192  RH  074%=      5-min Rain = 0
KAOS 242150Z 06014G19KT 24/19 A2987 RMK A01 T02400194  RH  080%=      5-min Rain = 0
KAOS 242155Z 06015KT 24/19 A2987 RMK A01 T02390190  RH  078%=      5-min Rain = 0
KAOS 242200Z 08016KT 23/19 A2987 RMK A01 T02340186  RH  078%=      5-min Rain = 0
KAOS 242205Z 08014KT 22/19 A2987 RMK A01 T02240185  RH  083%=      5-min Rain = 0
KAOS 242210Z 08012KT 23/18 A2987 RMK A01 T02300184  RH  080%=      5-min Rain = 0
KAOS 242215Z 09015KT 23/18 A2988 RMK A01 T02260181  RH  080%=      5-min Rain = 0
KAOS 242220Z 10018KT 22/18 A2989 RMK A01 T02210176  RH  080%=      5-min Rain = 0
KAOS 242225Z 10018KT 22/17 A2989 RMK A01 T02160174  RH  081%=      5-min Rain = 0
KAOS 242230Z 11017KT 21/17 A2988 RMK A01 T02120173  RH  082%=      5-min Rain = 0
KAOS 242235Z 10014KT 21/17 A2988 RMK A01 T02120172  RH  082%=      5-min Rain = 0
KAOS 242240Z 10014KT 21/17 A2987 RMK A01 T02140174  RH  082%=      5-min Rain = 0
KAOS 242245Z 10014KT 21/17 A2987 RMK A01 T02130174  RH  083%=      5-min Rain = 0
KAOS 242250Z 10012KT 21/18 A2987 RMK A01 T02120176  RH  084%=      5-min Rain = 0
KAOS 242255Z 09011KT 21/17 A2987 RMK A01 T02090172  RH  084%=      5-min Rain = 0
KAOS 242300Z 09013KT 21/17 A2988 RMK A01 T02130174  RH  083%=      5-min Rain = 0
KAOS 242305Z 09015KT 22/17 A2988 RMK A01 T02150174  RH  081%=      5-min Rain = 0
KAOS 242310Z 10015KT 21/17 A2987 RMK A01 T02140171  RH  080%=      5-min Rain = 0
KAOS 242315Z 11015KT 22/17 A2988 RMK A01 T02150166  RH  077%=      5-min Rain = 0
KAOS 242320Z 11012KT 22/17 A2986 RMK A01 T02160172  RH  080%=      5-min Rain = 0
KAOS 242325Z 10013G18KT 22/17 A2987 RMK A01 T02180165  RH  076%=      5-min Rain = 0
KAOS 242330Z 09016KT 22/16 A2987 RMK A01 T02200164  RH  074%=      5-min Rain = 0
KAOS 242335Z 10014KT 22/17 A2986 RMK A01 T02180170  RH  078%=      5-min Rain = 0
KAOS 242340Z 11016KT 22/17 A2987 RMK A01 T02190168  RH  077%=      5-min Rain = 0
KAOS 242345Z 12017KT 22/17 A2987 RMK A01 T02180165  RH  075%=      5-min Rain = 0
KAOS 242350Z 10014KT 22/16 A2985 RMK A01 T02170164  RH  075%=      5-min Rain = 0
KAOS 242355Z 09012KT 22/16 A2985 RMK A01 T02210160  RH  072%=      5-min Rain = 0
KAOS 250000Z 13014G19KT 22/16 A2986 RMK A01 T02210162  RH  073%=      5-min Rain = 0
KAOS 250005Z 15013KT 21/17 A2986 RMK A01 T02120169  RH  080%=      5-min Rain = 0
KAOS 250010Z 14009KT 21/17 A2986 RMK A01 T02140167  RH  078%=      5-min Rain = 0
KAOS 250015Z 13006KT 22/17 A2984 RMK A01 T02170167  RH  077%=      5-min Rain = 0
KAOS 250020Z 12007KT 22/16 A2984 RMK A01 T02200163  RH  074%=      5-min Rain = 0
KAOS 250025Z 12008G14KT 23/17 A2986 RMK A01 T02250168  RH  074%=      5-min Rain = 0
KAOS 250030Z 12021G28KT 22/17 A2987 RMK A01 T02150167  RH  078%=      5-min Rain = 0
KAOS 250035Z 09012KT 20/16 A2986 RMK A01 T02040164  RH  082%=      5-min Rain = 0
KAOS 250040Z 10012G17KT 20/17 A2986 RMK A01 T02030166  RH  083%=      5-min Rain = 0
KAOS 250045Z 09013KT 19/16 A2986 RMK A01 T01930163  RH  087%=      5-min Rain = 0.01
KAOS 250050Z 10020G28KT 19/16 A2987 RMK A01 T01890162  RH  088%=      5-min Rain = 0
KAOS 250055Z 11014KT 19/16 A2988 RMK A01 T01860162  RH  090%=      5-min Rain = 0
KAOS 250100Z 13013KT 19/16 A2988 RMK A01 T01880163  RH  089%=      5-min Rain = 0
KAOS 250105Z 13010KT 19/16 A2988 RMK A01 T01940164  RH  087%=      5-min Rain = 0
KAOS 250110Z 14014G19KT 20/17 A2988 RMK A01 T02000167  RH  086%=      5-min Rain = 0
KAOS 250115Z 13012KT 20/16 A2989 RMK A01 T02000164  RH  084%=      5-min Rain = 0
KAOS 250120Z 12011KT 20/16 A2991 RMK A01 T02000161  RH  082%=      5-min Rain = 0
KAOS 250125Z 10013KT 20/16 A2991 RMK A01 T01960159  RH  083%=      5-min Rain = 0
KAOS 250130Z 10014KT 20/16 A2991 RMK A01 T01950160  RH  085%=      5-min Rain = 0
KAOS 250135Z 10013KT 20/16 A2991 RMK A01 T01950159  RH  083%=      5-min Rain = 0
KAOS 250140Z 11017G22KT 20/16 A2992 RMK A01 T02030164  RH  082%=      5-min Rain = 0
KAOS 250145Z 11014G20KT 21/17 A2992 RMK A01 T02110165  RH  079%=      5-min Rain = 0
KAOS 250150Z 11012KT 21/16 A2993 RMK A01 T02080161  RH  078%=      5-min Rain = 0
KAOS 250155Z 09009KT 21/16 A2993 RMK A01 T02060160  RH  079%=      5-min Rain = 0
KAOS 250200Z 08008KT 20/16 A2992 RMK A01 T02020162  RH  082%=      5-min Rain = 0
KAOS 250205Z 10010KT 20/16 A2993 RMK A01 T02020163  RH  082%=      5-min Rain = 0
KAOS 250210Z 08010KT 20/16 A2993 RMK A01 T02040163  RH  082%=      5-min Rain = 0
KAOS 250215Z 07009KT 20/17 A2993 RMK A01 T02030166  RH  083%=      5-min Rain = 0
KAOS 250220Z 07009KT 20/17 A2993 RMK A01 T02030167  RH  084%=      5-min Rain = 0
KAOS 250225Z 08012KT 21/17 A2993 RMK A01 T02050167  RH  083%=      5-min Rain = 0
KAOS 250230Z 07011KT 20/17 A2993 RMK A01 T02020169  RH  085%=      5-min Rain = 0
KAOS 250235Z 08013KT 20/17 A2992 RMK A01 T02020168  RH  085%=      5-min Rain = 0
KAOS 250240Z 08012KT 20/17 A2993 RMK A01 T02030166  RH  083%=      5-min Rain = 0
KAOS 250245Z 09012KT 20/16 A2993 RMK A01 T02030164  RH  082%=      5-min Rain = 0
KAOS 250250Z 08012KT 20/16 A2994 RMK A01 T02030161  RH  081%=      5-min Rain = 0
KAOS 250255Z 08011KT 20/16 A2995 RMK A01 T02030159  RH  080%=      5-min Rain = 0
KAOS 250300Z 06009KT 20/16 A2996 RMK A01 T02040160  RH  080%=      5-min Rain = 0
KAOS 250305Z 04010KT 20/17 A2996 RMK A01 T02040165  RH  082%=      5-min Rain = 0
KAOS 250310Z 03012KT 21/16 A2997 RMK A01 T02060163  RH  080%=      5-min Rain = 0
KAOS 250315Z 01010KT 20/15 A2997 RMK A01 T02040152  RH  075%=      5-min Rain = 0
KAOS 250320Z 03011KT 20/15 A2997 RMK A01 T02010148  RH  075%=      5-min Rain = 0
KAOS 250325Z 04013KT 20/14 A2997 RMK A01 T01990143  RH  073%=      5-min Rain = 0
KAOS 250330Z 05013KT 20/14 A2997 RMK A01 T01950139  RH  073%=      5-min Rain = 0
KAOS 250335Z 08011KT 20/14 A2998 RMK A01 T01960136  RH  071%=      5-min Rain = 0
KAOS 250340Z 07008KT 20/14 A2998 RMK A01 T01970141  RH  073%=      5-min Rain = 0
KAOS 250345Z 08009G14KT 20/14 A2998 RMK A01 T02010143  RH  072%=      5-min Rain = 0
KAOS 250350Z 09010KT 21/14 A2998 RMK A01 T02050142  RH  070%=      5-min Rain = 0
KAOS 250355Z 10012KT 21/15 A2998 RMK A01 T02060149  RH  073%=      5-min Rain = 0
KAOS 250400Z 09013KT 20/15 A2998 RMK A01 T02040149  RH  074%=      5-min Rain = 0
KAOS 250405Z 09012KT 20/15 A2998 RMK A01 T02000151  RH  077%=      5-min Rain = 0
KAOS 250410Z 10010KT 20/15 A2998 RMK A01 T01960150  RH  078%=      5-min Rain = 0
KAOS 250415Z 09011KT 19/15 A2998 RMK A01 T01940149  RH  079%=      5-min Rain = 0
KAOS 250420Z 10011KT 19/15 A2999 RMK A01 T01930154  RH  082%=      5-min Rain = 0
KAOS 250425Z 10013KT 20/16 A2999 RMK A01 T01950161  RH  085%=      5-min Rain = 0
KAOS 250430Z 10015KT 20/16 A2999 RMK A01 T01960163  RH  085%=      5-min Rain = 0
KAOS 250435Z 10014KT 20/16 A2999 RMK A01 T01970162  RH  084%=      5-min Rain = 0
KAOS 250440Z 10014KT 20/16 A2999 RMK A01 T01960162  RH  085%=      5-min Rain = 0
KAOS 250445Z 10014KT 20/16 A2999 RMK A01 T01950161  RH  084%=      5-min Rain = 0
KAOS 250450Z 10015KT 20/16 A2999 RMK A01 T01960160  RH  084%=      5-min Rain = 0
KAOS 250455Z 10015KT 20/16 A2999 RMK A01 T01960160  RH  084%=      5-min Rain = 0

Page generated in 0.0104 seconds.